PGT4BK OKKK-ORBI
Flight info
| Callsign | PGT4BK |
|---|---|
| Flight time | 1h 2m |
| Altitude | 38000 |
| Route | RALKA L602 ALPET L718 DEBNI |
| Aircraft | A20N/M-SDE2E3FGHIRWXY/LB1 |
Departure
| Time | 2026-04-23 22:03 |
|---|---|
| Airport | Kuwait International Airport (OKKK) |
Arrival
| Time | 2026-04-23 23:06 |
|---|---|
| Airport | Baghdad International Airport / New Al Muthana Air Base (ORBI) |
| Time | Latitude | Longitude | Altitude | Speed | Heading |
|---|---|---|---|---|---|
| 2026-04-23 21:20 | 29.23802 | 47.97294 | 159 ft | 0 kts | 240° |
| 2026-04-23 21:45 | 29.23808 | 47.97307 | 159 ft | 2 kts | 240° |
| 2026-04-23 21:46 | 29.23816 | 47.97322 | 159 ft | 2 kts | 240° |
| 2026-04-23 21:46 | 29.23822 | 47.97334 | 159 ft | 0 kts | 240° |
| 2026-04-23 21:46 | 29.23828 | 47.97346 | 160 ft | 2 kts | 227° |
| 2026-04-23 21:46 | 29.23840 | 47.97358 | 160 ft | 2 kts | 212° |
| 2026-04-23 21:47 | 29.23853 | 47.97365 | 160 ft | 2 kts | 197° |
| 2026-04-23 21:47 | 29.23868 | 47.97369 | 161 ft | 2 kts | 182° |
| 2026-04-23 21:47 | 29.23882 | 47.97368 | 161 ft | 1 kts | 168° |
| 2026-04-23 21:47 | 29.23888 | 47.97366 | 161 ft | 1 kts | 164° |
| 2026-04-23 21:48 | 29.23889 | 47.97365 | 161 ft | 0 kts | 165° |
| 2026-04-23 21:52 | 29.23880 | 47.97368 | 161 ft | 2 kts | 163° |
| 2026-04-23 21:53 | 29.23848 | 47.97382 | 160 ft | 7 kts | 156° |
| 2026-04-23 21:53 | 29.23790 | 47.97414 | 157 ft | 11 kts | 154° |
| 2026-04-23 21:53 | 29.23710 | 47.97456 | 152 ft | 13 kts | 150° |
| 2026-04-23 21:53 | 29.23694 | 47.97548 | 152 ft | 11 kts | 68° |
| 2026-04-23 21:54 | 29.23716 | 47.97606 | 155 ft | 5 kts | 67° |
| 2026-04-23 21:54 | 29.23723 | 47.97627 | 157 ft | 0 kts | 67° |
| 2026-04-23 21:54 | 29.23726 | 47.97634 | 158 ft | 4 kts | 68° |
| 2026-04-23 21:54 | 29.23739 | 47.97669 | 160 ft | 9 kts | 66° |
| 2026-04-23 21:55 | 29.23798 | 47.97824 | 166 ft | 22 kts | 66° |
| 2026-04-23 21:55 | 29.23838 | 47.97926 | 168 ft | 15 kts | 65° |
| 2026-04-23 21:55 | 29.23881 | 47.98040 | 167 ft | 16 kts | 67° |
| 2026-04-23 21:55 | 29.23909 | 47.98186 | 165 ft | 13 kts | 124° |
| 2026-04-23 21:56 | 29.23855 | 47.98227 | 166 ft | 14 kts | 156° |
| 2026-04-23 21:56 | 29.23764 | 47.98275 | 167 ft | 15 kts | 155° |
| 2026-04-23 21:56 | 29.23663 | 47.98328 | 169 ft | 15 kts | 155° |
| 2026-04-23 21:56 | 29.23562 | 47.98381 | 171 ft | 16 kts | 155° |
| 2026-04-23 21:57 | 29.23461 | 47.98436 | 174 ft | 15 kts | 154° |
| 2026-04-23 21:57 | 29.23362 | 47.98488 | 176 ft | 15 kts | 155° |
| 2026-04-23 21:57 | 29.23258 | 47.98540 | 178 ft | 16 kts | 154° |
| 2026-04-23 21:57 | 29.23154 | 47.98598 | 180 ft | 16 kts | 155° |
| 2026-04-23 21:58 | 29.23047 | 47.98655 | 182 ft | 17 kts | 154° |
| 2026-04-23 21:58 | 29.22935 | 47.98714 | 183 ft | 17 kts | 157° |
| 2026-04-23 21:58 | 29.22821 | 47.98773 | 184 ft | 18 kts | 155° |
| 2026-04-23 21:58 | 29.22702 | 47.98836 | 185 ft | 19 kts | 155° |
| 2026-04-23 21:59 | 29.22581 | 47.98901 | 187 ft | 19 kts | 155° |
| 2026-04-23 21:59 | 29.22456 | 47.98969 | 188 ft | 19 kts | 157° |
| 2026-04-23 21:59 | 29.22327 | 47.99035 | 189 ft | 20 kts | 154° |
| 2026-04-23 22:00 | 29.22071 | 47.99173 | 192 ft | 20 kts | 155° |
| 2026-04-23 22:00 | 29.21944 | 47.99240 | 194 ft | 20 kts | 155° |
| 2026-04-23 22:00 | 29.21819 | 47.99307 | 197 ft | 19 kts | 155° |
| 2026-04-23 22:00 | 29.21693 | 47.99374 | 198 ft | 20 kts | 155° |
| 2026-04-23 22:01 | 29.21563 | 47.99442 | 199 ft | 20 kts | 155° |
| 2026-04-23 22:01 | 29.21438 | 47.99509 | 203 ft | 19 kts | 155° |
| 2026-04-23 22:01 | 29.21316 | 47.99572 | 204 ft | 14 kts | 154° |
| 2026-04-23 22:01 | 29.21279 | 47.99654 | 206 ft | 11 kts | 72° |
| 2026-04-23 22:02 | 29.21313 | 47.99736 | 207 ft | 12 kts | 61° |
| 2026-04-23 22:02 | 29.21359 | 47.99801 | 207 ft | 11 kts | 3° |
| 2026-04-23 22:02 | 29.21388 | 47.99791 | 206 ft | 0 kts | 337° |
| 2026-04-23 22:02 | 29.21391 | 47.99789 | 206 ft | 6 kts | 337° |
| 2026-04-23 22:03 | 29.21687 | 47.99632 | 202 ft | 85 kts | 335° |
| 2026-04-23 22:03 | 29.22434 | 47.99237 | 190 ft | 147 kts | 335° |
| 2026-04-23 22:03 | 29.23492 | 47.98716 | 411 ft | 175 kts | 335° |
| 2026-04-23 22:03 | 29.24660 | 47.98178 | 906 ft | 185 kts | 336° |
| 2026-04-23 22:04 | 29.25848 | 47.97632 | 1630 ft | 184 kts | 335° |
| 2026-04-23 22:04 | 29.26998 | 47.97088 | 2380 ft | 181 kts | 337° |
| 2026-04-23 22:04 | 29.28270 | 47.96766 | 2814 ft | 198 kts | 354° |
| 2026-04-23 22:04 | 29.29697 | 47.96687 | 3350 ft | 209 kts | 358° |
| 2026-04-23 22:05 | 29.31207 | 47.96643 | 3679 ft | 230 kts | 358° |
| 2026-04-23 22:05 | 29.32878 | 47.96580 | 4077 ft | 250 kts | 358° |
| 2026-04-23 22:05 | 29.34688 | 47.96490 | 4612 ft | 264 kts | 357° |
| 2026-04-23 22:05 | 29.36531 | 47.96384 | 5373 ft | 270 kts | 356° |
| 2026-04-23 22:06 | 29.38420 | 47.96266 | 6196 ft | 273 kts | 356° |
| 2026-04-23 22:06 | 29.40324 | 47.96141 | 6991 ft | 278 kts | 355° |
| 2026-04-23 22:06 | 29.42264 | 47.96011 | 7745 ft | 284 kts | 355° |
| 2026-04-23 22:06 | 29.44253 | 47.95875 | 8491 ft | 290 kts | 355° |
| 2026-04-23 22:07 | 29.46297 | 47.95733 | 9239 ft | 296 kts | 355° |
| 2026-04-23 22:07 | 29.48374 | 47.95588 | 9986 ft | 302 kts | 354° |
| 2026-04-23 22:07 | 29.50483 | 47.95441 | 10625 ft | 312 kts | 354° |
| 2026-04-23 22:07 | 29.52717 | 47.95282 | 11040 ft | 330 kts | 354° |
| 2026-04-23 22:08 | 29.55068 | 47.95116 | 11415 ft | 348 kts | 354° |
| 2026-04-23 22:08 | 29.57546 | 47.94943 | 11957 ft | 359 kts | 354° |
| 2026-04-23 22:08 | 29.60035 | 47.94772 | 12743 ft | 362 kts | 354° |
| 2026-04-23 22:08 | 29.62551 | 47.94598 | 13545 ft | 363 kts | 354° |
| 2026-04-23 22:09 | 29.65066 | 47.94426 | 14297 ft | 366 kts | 353° |
| 2026-04-23 22:09 | 29.67623 | 47.94248 | 15012 ft | 369 kts | 353° |
| 2026-04-23 22:09 | 29.70197 | 47.94069 | 15675 ft | 374 kts | 353° |
| 2026-04-23 22:09 | 29.72834 | 47.93881 | 16258 ft | 380 kts | 353° |
| 2026-04-23 22:10 | 29.75477 | 47.93695 | 16908 ft | 384 kts | 352° |
| 2026-04-23 22:10 | 29.78166 | 47.93505 | 17558 ft | 387 kts | 352° |
| 2026-04-23 22:10 | 29.81774 | 47.93251 | 18384 ft | 392 kts | 352° |
| 2026-04-23 22:10 | 29.83577 | 47.93123 | 18771 ft | 394 kts | 352° |
| 2026-04-23 22:11 | 29.86348 | 47.92929 | 19344 ft | 398 kts | 351° |
| 2026-04-23 22:11 | 29.89126 | 47.92732 | 19891 ft | 403 kts | 351° |
| 2026-04-23 22:11 | 29.91938 | 47.92532 | 20453 ft | 406 kts | 351° |
| 2026-04-23 22:11 | 29.94769 | 47.92332 | 21001 ft | 410 kts | 351° |
| 2026-04-23 22:12 | 29.97650 | 47.92126 | 21519 ft | 414 kts | 350° |
| 2026-04-23 22:12 | 30.00482 | 47.91634 | 21996 ft | 408 kts | 336° |
| 2026-04-23 22:12 | 30.03021 | 47.90249 | 22506 ft | 397 kts | 320° |
| 2026-04-23 22:12 | 30.05034 | 47.88193 | 23024 ft | 389 kts | 306° |
| 2026-04-23 22:13 | 30.06814 | 47.85821 | 23564 ft | 390 kts | 305° |
| 2026-04-23 22:13 | 30.08586 | 47.83437 | 24076 ft | 393 kts | 305° |
| 2026-04-23 22:13 | 30.10374 | 47.81034 | 24610 ft | 394 kts | 304° |
| 2026-04-23 22:13 | 30.12171 | 47.78624 | 25128 ft | 395 kts | 304° |
| 2026-04-23 22:14 | 30.13949 | 47.76243 | 25589 ft | 397 kts | 304° |
| 2026-04-23 22:14 | 30.15761 | 47.73813 | 25985 ft | 400 kts | 304° |
| 2026-04-23 22:14 | 30.17596 | 47.71357 | 26377 ft | 403 kts | 304° |
| 2026-04-23 22:14 | 30.19435 | 47.68893 | 26782 ft | 405 kts | 303° |
| 2026-04-23 22:15 | 30.21262 | 47.66447 | 27167 ft | 408 kts | 303° |
| 2026-04-23 22:15 | 30.23123 | 47.63950 | 27536 ft | 410 kts | 303° |
| 2026-04-23 22:15 | 30.24984 | 47.61454 | 27914 ft | 412 kts | 303° |
| 2026-04-23 22:15 | 30.26864 | 47.58933 | 28270 ft | 414 kts | 303° |
| 2026-04-23 22:16 | 30.28756 | 47.56393 | 28612 ft | 416 kts | 303° |
| 2026-04-23 22:16 | 30.30650 | 47.53851 | 28973 ft | 417 kts | 303° |
| 2026-04-23 22:16 | 30.32550 | 47.51298 | 29338 ft | 419 kts | 303° |
| 2026-04-23 22:16 | 30.34426 | 47.48777 | 29775 ft | 417 kts | 303° |
| 2026-04-23 22:17 | 30.36950 | 47.45385 | 30394 ft | 414 kts | 302° |
| 2026-04-23 22:17 | 30.38201 | 47.43701 | 30691 ft | 413 kts | 302° |
| 2026-04-23 22:17 | 30.40068 | 47.41185 | 31113 ft | 411 kts | 302° |
| 2026-04-23 22:17 | 30.41914 | 47.38695 | 31535 ft | 409 kts | 302° |
| 2026-04-23 22:18 | 30.43783 | 47.36173 | 31937 ft | 408 kts | 302° |
| 2026-04-23 22:18 | 30.45615 | 47.33697 | 32332 ft | 405 kts | 302° |
| 2026-04-23 22:18 | 30.47438 | 47.31234 | 32738 ft | 403 kts | 302° |
| 2026-04-23 22:18 | 30.49270 | 47.28755 | 33103 ft | 402 kts | 301° |
| 2026-04-23 22:19 | 30.51069 | 47.26319 | 33452 ft | 400 kts | 301° |
| 2026-04-23 22:19 | 30.52868 | 47.23882 | 33840 ft | 399 kts | 301° |
| 2026-04-23 22:19 | 30.54691 | 47.21408 | 34206 ft | 397 kts | 301° |
| 2026-04-23 22:19 | 30.56464 | 47.19008 | 34579 ft | 395 kts | 301° |
| 2026-04-23 22:20 | 30.58260 | 47.16581 | 34937 ft | 394 kts | 301° |
| 2026-04-23 22:20 | 30.60026 | 47.14194 | 35247 ft | 393 kts | 300° |
| 2026-04-23 22:20 | 30.61813 | 47.11768 | 35567 ft | 391 kts | 300° |
| 2026-04-23 22:20 | 30.63584 | 47.09367 | 35841 ft | 390 kts | 300° |
| 2026-04-23 22:21 | 30.65343 | 47.06977 | 36046 ft | 391 kts | 300° |
| 2026-04-23 22:21 | 30.67104 | 47.04579 | 36285 ft | 390 kts | 301° |
| 2026-04-23 22:21 | 30.68873 | 47.02174 | 36534 ft | 389 kts | 300° |
| 2026-04-23 22:21 | 30.70621 | 46.99802 | 36740 ft | 389 kts | 300° |
| 2026-04-23 22:22 | 30.72371 | 46.97420 | 36875 ft | 390 kts | 300° |
| 2026-04-23 22:22 | 30.74141 | 46.95003 | 37092 ft | 389 kts | 300° |
| 2026-04-23 22:22 | 30.76455 | 46.91857 | 37762 ft | 379 kts | 300° |
| 2026-04-23 22:22 | 30.77587 | 46.90316 | 37911 ft | 379 kts | 300° |
| 2026-04-23 22:23 | 30.81031 | 46.85601 | 37912 ft | 385 kts | 299° |
| 2026-04-23 22:23 | 30.84532 | 46.80808 | 37915 ft | 390 kts | 300° |
| 2026-04-23 22:24 | 30.88053 | 46.75986 | 37914 ft | 390 kts | 299° |
| 2026-04-23 22:24 | 30.91550 | 46.71198 | 37915 ft | 390 kts | 300° |
| 2026-04-23 22:25 | 30.95065 | 46.66379 | 37914 ft | 390 kts | 300° |
| 2026-04-23 22:25 | 30.98569 | 46.61560 | 37913 ft | 391 kts | 299° |
| 2026-04-23 22:26 | 31.02084 | 46.56728 | 37913 ft | 391 kts | 299° |
| 2026-04-23 22:26 | 31.05610 | 46.51871 | 37912 ft | 390 kts | 299° |
| 2026-04-23 22:27 | 31.09102 | 46.47049 | 37913 ft | 390 kts | 300° |
| 2026-04-23 22:27 | 31.12627 | 46.42183 | 37915 ft | 390 kts | 300° |
| 2026-04-23 22:28 | 31.16126 | 46.37343 | 37914 ft | 391 kts | 300° |
| 2026-04-23 22:28 | 31.19717 | 46.32553 | 37916 ft | 396 kts | 302° |
| 2026-04-23 22:29 | 31.23722 | 46.28081 | 37914 ft | 400 kts | 307° |
| 2026-04-23 22:29 | 31.27933 | 46.23835 | 37914 ft | 396 kts | 307° |
| 2026-04-23 22:30 | 31.32118 | 46.19627 | 37912 ft | 397 kts | 307° |
| 2026-04-23 22:30 | 31.36310 | 46.15409 | 37913 ft | 397 kts | 307° |
| 2026-04-23 22:31 | 31.40482 | 46.11201 | 37916 ft | 396 kts | 307° |
| 2026-04-23 22:31 | 31.44687 | 46.06959 | 37914 ft | 397 kts | 307° |
| 2026-04-23 22:32 | 31.48863 | 46.02743 | 37914 ft | 397 kts | 307° |
| 2026-04-23 22:32 | 31.53050 | 45.98511 | 37907 ft | 397 kts | 307° |
| 2026-04-23 22:33 | 31.57225 | 45.94285 | 37903 ft | 397 kts | 307° |
| 2026-04-23 22:33 | 31.61388 | 45.90065 | 37898 ft | 396 kts | 307° |
| 2026-04-23 22:34 | 31.65574 | 45.85817 | 37897 ft | 396 kts | 307° |
| 2026-04-23 22:34 | 31.69767 | 45.81563 | 37892 ft | 398 kts | 307° |
| 2026-04-23 22:35 | 31.73939 | 45.77315 | 37894 ft | 398 kts | 307° |
| 2026-04-23 22:35 | 31.78102 | 45.73078 | 37891 ft | 396 kts | 307° |
| 2026-04-23 22:36 | 31.82295 | 45.68803 | 37894 ft | 397 kts | 307° |
| 2026-04-23 22:36 | 31.86491 | 45.64518 | 37895 ft | 398 kts | 308° |
| 2026-04-23 22:37 | 31.90654 | 45.60265 | 37896 ft | 397 kts | 307° |
| 2026-04-23 22:37 | 31.94832 | 45.55986 | 37893 ft | 398 kts | 307° |
| 2026-04-23 22:38 | 31.99033 | 45.51681 | 37534 ft | 394 kts | 308° |
| 2026-04-23 22:38 | 32.01093 | 45.49573 | 37238 ft | 391 kts | 307° |
| 2026-04-23 22:38 | 32.03144 | 45.47463 | 36953 ft | 391 kts | 308° |
| 2026-04-23 22:39 | 32.05181 | 45.45372 | 36675 ft | 389 kts | 308° |
| 2026-04-23 22:39 | 32.07232 | 45.43263 | 36381 ft | 389 kts | 308° |
| 2026-04-23 22:39 | 32.09276 | 45.41163 | 36032 ft | 391 kts | 308° |
| 2026-04-23 22:39 | 32.11323 | 45.39049 | 35444 ft | 393 kts | 309° |
| 2026-04-23 22:40 | 32.13417 | 45.36884 | 34833 ft | 393 kts | 309° |
| 2026-04-23 22:40 | 32.15480 | 45.34763 | 34184 ft | 394 kts | 308° |
| 2026-04-23 22:40 | 32.19616 | 45.30487 | 32795 ft | 399 kts | 309° |
| 2026-04-23 22:41 | 32.21733 | 45.28302 | 32035 ft | 404 kts | 310° |
| 2026-04-23 22:41 | 32.23843 | 45.26120 | 31221 ft | 410 kts | 310° |
| 2026-04-23 22:41 | 32.26016 | 45.23873 | 30326 ft | 417 kts | 311° |
| 2026-04-23 22:41 | 32.28198 | 45.21617 | 29345 ft | 425 kts | 311° |
| 2026-04-23 22:42 | 32.30418 | 45.19324 | 28670 ft | 424 kts | 311° |
| 2026-04-23 22:42 | 32.32630 | 45.17041 | 28154 ft | 420 kts | 312° |
| 2026-04-23 22:42 | 32.34813 | 45.14790 | 27667 ft | 415 kts | 312° |
| 2026-04-23 22:42 | 32.36982 | 45.12547 | 27172 ft | 410 kts | 312° |
| 2026-04-23 22:43 | 32.39116 | 45.10336 | 26662 ft | 406 kts | 312° |
| 2026-04-23 22:43 | 32.41232 | 45.08138 | 26160 ft | 403 kts | 312° |
| 2026-04-23 22:43 | 32.43350 | 45.05940 | 25689 ft | 398 kts | 312° |
| 2026-04-23 22:43 | 32.45418 | 45.03791 | 25210 ft | 395 kts | 312° |
| 2026-04-23 22:44 | 32.47469 | 45.01657 | 24711 ft | 392 kts | 313° |
| 2026-04-23 22:44 | 32.49505 | 44.99536 | 24233 ft | 389 kts | 313° |
| 2026-04-23 22:44 | 32.51538 | 44.97417 | 23752 ft | 386 kts | 313° |
| 2026-04-23 22:44 | 32.53559 | 44.95309 | 23288 ft | 383 kts | 313° |
| 2026-04-23 22:45 | 32.55551 | 44.93229 | 22799 ft | 380 kts | 313° |
| 2026-04-23 22:45 | 32.57515 | 44.91178 | 22334 ft | 378 kts | 314° |
| 2026-04-23 22:45 | 32.59489 | 44.89115 | 21847 ft | 376 kts | 314° |
| 2026-04-23 22:45 | 32.61436 | 44.87080 | 21360 ft | 374 kts | 314° |
| 2026-04-23 22:46 | 32.63383 | 44.85042 | 20862 ft | 373 kts | 314° |
| 2026-04-23 22:46 | 32.65321 | 44.83013 | 20362 ft | 372 kts | 314° |
| 2026-04-23 22:46 | 32.67259 | 44.80985 | 19873 ft | 370 kts | 315° |
| 2026-04-23 22:46 | 32.69183 | 44.78971 | 19400 ft | 368 kts | 315° |
| 2026-04-23 22:47 | 32.71120 | 44.76939 | 18915 ft | 366 kts | 315° |
| 2026-04-23 22:47 | 32.73014 | 44.74953 | 18447 ft | 364 kts | 315° |
| 2026-04-23 22:47 | 32.74907 | 44.72968 | 17978 ft | 362 kts | 316° |
| 2026-04-23 22:47 | 32.76781 | 44.70998 | 17519 ft | 360 kts | 316° |
| 2026-04-23 22:48 | 32.78654 | 44.69031 | 17053 ft | 359 kts | 316° |
| 2026-04-23 22:48 | 32.80513 | 44.67079 | 16591 ft | 356 kts | 316° |
| 2026-04-23 22:48 | 32.82362 | 44.65135 | 16128 ft | 354 kts | 316° |
| 2026-04-23 22:48 | 32.84226 | 44.63173 | 15658 ft | 353 kts | 316° |
| 2026-04-23 22:49 | 32.86059 | 44.61243 | 15196 ft | 351 kts | 316° |
| 2026-04-23 22:49 | 32.87880 | 44.59324 | 14733 ft | 349 kts | 316° |
| 2026-04-23 22:49 | 32.89685 | 44.57420 | 14276 ft | 346 kts | 316° |
| 2026-04-23 22:49 | 32.91492 | 44.55514 | 13824 ft | 344 kts | 317° |
| 2026-04-23 22:50 | 32.93267 | 44.53640 | 13377 ft | 342 kts | 317° |
| 2026-04-23 22:50 | 32.95049 | 44.51758 | 12935 ft | 339 kts | 317° |
| 2026-04-23 22:50 | 32.96806 | 44.49903 | 12495 ft | 337 kts | 317° |
| 2026-04-23 22:50 | 32.98554 | 44.48056 | 12080 ft | 334 kts | 317° |
| 2026-04-23 22:51 | 33.00288 | 44.46221 | 11661 ft | 331 kts | 317° |
| 2026-04-23 22:51 | 33.01987 | 44.44422 | 11235 ft | 329 kts | 317° |
| 2026-04-23 22:51 | 33.03698 | 44.42610 | 10792 ft | 327 kts | 317° |
| 2026-04-23 22:51 | 33.05383 | 44.40826 | 10485 ft | 319 kts | 317° |
| 2026-04-23 22:52 | 33.07015 | 44.39096 | 10341 ft | 306 kts | 317° |
| 2026-04-23 22:52 | 33.08574 | 44.37442 | 10204 ft | 285 kts | 316° |
| 2026-04-23 22:52 | 33.10014 | 44.35913 | 10088 ft | 271 kts | 316° |
| 2026-04-23 22:52 | 33.11402 | 44.34435 | 9976 ft | 265 kts | 316° |
| 2026-04-23 22:53 | 33.12790 | 44.32957 | 9669 ft | 265 kts | 316° |
| 2026-04-23 22:53 | 33.14176 | 44.31479 | 9327 ft | 265 kts | 316° |
| 2026-04-23 22:53 | 33.15543 | 44.30026 | 8994 ft | 264 kts | 316° |
| 2026-04-23 22:53 | 33.17012 | 44.28682 | 8645 ft | 266 kts | 324° |
| 2026-04-23 22:54 | 33.18655 | 44.27637 | 8303 ft | 268 kts | 333° |
| 2026-04-23 22:54 | 33.20381 | 44.26777 | 7957 ft | 268 kts | 335° |
| 2026-04-23 22:54 | 33.22116 | 44.25951 | 7611 ft | 268 kts | 335° |
| 2026-04-23 22:54 | 33.23868 | 44.25119 | 7266 ft | 268 kts | 335° |
| 2026-04-23 22:55 | 33.25592 | 44.24295 | 7095 ft | 256 kts | 335° |
| 2026-04-23 22:55 | 33.27204 | 44.23523 | 7009 ft | 243 kts | 334° |
| 2026-04-23 22:55 | 33.28750 | 44.22763 | 6918 ft | 233 kts | 332° |
| 2026-04-23 22:55 | 33.30180 | 44.21900 | 6761 ft | 229 kts | 327° |
| 2026-04-23 22:56 | 33.31565 | 44.20955 | 6539 ft | 225 kts | 326° |
| 2026-04-23 22:56 | 33.32906 | 44.20028 | 6306 ft | 221 kts | 326° |
| 2026-04-23 22:56 | 33.34216 | 44.19120 | 6037 ft | 216 kts | 326° |
| 2026-04-23 22:56 | 33.35523 | 44.18215 | 5741 ft | 217 kts | 326° |
| 2026-04-23 22:57 | 33.36824 | 44.17314 | 5480 ft | 217 kts | 326° |
| 2026-04-23 22:57 | 33.38142 | 44.16404 | 5237 ft | 216 kts | 327° |
| 2026-04-23 22:57 | 33.39423 | 44.15522 | 4941 ft | 211 kts | 327° |
| 2026-04-23 22:57 | 33.40694 | 44.14648 | 4642 ft | 205 kts | 327° |
| 2026-04-23 22:58 | 33.41909 | 44.13811 | 4402 ft | 197 kts | 327° |
| 2026-04-23 22:58 | 33.43070 | 44.13011 | 4236 ft | 192 kts | 327° |
| 2026-04-23 22:58 | 33.44213 | 44.12219 | 3997 ft | 187 kts | 325° |
| 2026-04-23 22:58 | 33.45134 | 44.11214 | 3727 ft | 175 kts | 298° |
| 2026-04-23 22:59 | 33.45564 | 44.09929 | 3516 ft | 161 kts | 271° |
| 2026-04-23 22:59 | 33.45524 | 44.08617 | 3530 ft | 157 kts | 249° |
| 2026-04-23 22:59 | 33.45078 | 44.07438 | 3557 ft | 152 kts | 227° |
| 2026-04-23 22:59 | 33.44340 | 44.06577 | 3568 ft | 147 kts | 207° |
| 2026-04-23 23:00 | 33.43417 | 44.06098 | 3572 ft | 144 kts | 189° |
| 2026-04-23 23:00 | 33.42428 | 44.06031 | 3569 ft | 142 kts | 171° |
| 2026-04-23 23:00 | 33.41473 | 44.06372 | 3391 ft | 142 kts | 153° |
| 2026-04-23 23:00 | 33.40690 | 44.07076 | 3198 ft | 144 kts | 134° |
| 2026-04-23 23:01 | 33.40146 | 44.08086 | 2998 ft | 146 kts | 115° |
| 2026-04-23 23:01 | 33.39832 | 44.09234 | 2929 ft | 146 kts | 110° |
| 2026-04-23 23:01 | 33.39553 | 44.10397 | 2901 ft | 146 kts | 110° |
| 2026-04-23 23:01 | 33.39276 | 44.11562 | 2836 ft | 145 kts | 110° |
| 2026-04-23 23:02 | 33.38997 | 44.12734 | 2753 ft | 144 kts | 110° |
| 2026-04-23 23:02 | 33.38730 | 44.13860 | 2684 ft | 138 kts | 110° |
| 2026-04-23 23:02 | 33.38467 | 44.14959 | 2579 ft | 136 kts | 110° |
| 2026-04-23 23:02 | 33.38153 | 44.16014 | 2444 ft | 135 kts | 126° |
| 2026-04-23 23:03 | 33.37474 | 44.16782 | 2187 ft | 135 kts | 143° |
| 2026-04-23 23:03 | 33.36684 | 44.17399 | 2079 ft | 135 kts | 147° |
| 2026-04-23 23:03 | 33.35871 | 44.17984 | 1980 ft | 135 kts | 148° |
| 2026-04-23 23:03 | 33.35062 | 44.18544 | 1896 ft | 138 kts | 148° |
| 2026-04-23 23:04 | 33.34220 | 44.19106 | 1439 ft | 141 kts | 149° |
| 2026-04-23 23:04 | 33.33387 | 44.19676 | 1178 ft | 133 kts | 148° |
| 2026-04-23 23:04 | 33.32592 | 44.20234 | 1038 ft | 133 kts | 148° |
| 2026-04-23 23:04 | 33.31791 | 44.20791 | 884 ft | 133 kts | 147° |
| 2026-04-23 23:05 | 33.30987 | 44.21342 | 720 ft | 132 kts | 148° |
| 2026-04-23 23:05 | 33.30180 | 44.21880 | 531 ft | 132 kts | 148° |
| 2026-04-23 23:05 | 33.29394 | 44.22417 | 374 ft | 130 kts | 148° |
| 2026-04-23 23:05 | 33.28606 | 44.22960 | 238 ft | 130 kts | 148° |
| 2026-04-23 23:06 | 33.27821 | 44.23500 | 124 ft | 123 kts | 148° |
| 2026-04-23 23:06 | 33.27231 | 44.23904 | 122 ft | 73 kts | 150° |
| 2026-04-23 23:06 | 33.26942 | 44.24103 | 123 ft | 29 kts | 155° |
| 2026-04-23 23:06 | 33.26751 | 44.24147 | 123 ft | 21 kts | 180° |
| 2026-04-23 23:07 | 33.26659 | 44.24080 | 124 ft | 15 kts | 262° |
| 2026-04-23 23:07 | 33.26721 | 44.23991 | 124 ft | 15 kts | 330° |
| 2026-04-23 23:07 | 33.26813 | 44.23929 | 124 ft | 15 kts | 331° |
| 2026-04-23 23:07 | 33.26911 | 44.23863 | 124 ft | 16 kts | 330° |
| 2026-04-23 23:08 | 33.27013 | 44.23794 | 124 ft | 16 kts | 329° |
| 2026-04-23 23:08 | 33.27115 | 44.23721 | 124 ft | 17 kts | 329° |
| 2026-04-23 23:08 | 33.27219 | 44.23653 | 124 ft | 17 kts | 330° |
| 2026-04-23 23:08 | 33.27319 | 44.23582 | 127 ft | 14 kts | 329° |
| 2026-04-23 23:09 | 33.27364 | 44.23494 | 128 ft | 13 kts | 258° |
| 2026-04-23 23:09 | 33.27338 | 44.23429 | 129 ft | 0 kts | 238° |
| 2026-04-23 23:17 | 33.27337 | 44.23428 | 129 ft | 0 kts | 238° |
| 2026-04-23 23:17 | 33.27281 | 44.23311 | 129 ft | 26 kts | 239° |
| 2026-04-23 23:17 | 33.27207 | 44.23162 | 130 ft | 16 kts | 240° |
| 2026-04-23 23:18 | 33.27155 | 44.23051 | 130 ft | 9 kts | 240° |
| 2026-04-23 23:18 | 33.27105 | 44.23028 | 132 ft | 5 kts | 164° |
| 2026-04-23 23:18 | 33.27090 | 44.23034 | 134 ft | 0 kts | 162° |
| 2026-04-23 23:18 | 33.27052 | 44.23049 | 138 ft | 11 kts | 160° |
| 2026-04-23 23:19 | 33.27027 | 44.23060 | 140 ft | 0 kts | 163° |